sensor_id;sensor_type;location;lat;lon;timestamp;P1;durP1;ratioP1;P2;durP2;ratioP2
32663;SDS011;19847;48.670;9.242;2022-07-29T00:00:53;10.73;;;8.57;;
32663;SDS011;19847;48.670;9.242;2022-07-29T00:04:15;10.02;;;9.02;;
32663;SDS011;19847;48.670;9.242;2022-07-29T00:07:38;9.75;;;8.75;;
32663;SDS011;19847;48.670;9.242;2022-07-29T00:11:00;18.33;;;9.55;;
32663;SDS011;19847;48.670;9.242;2022-07-29T00:14:23;8.63;;;7.82;;
32663;SDS011;19847;48.670;9.242;2022-07-29T00:17:45;13.25;;;9.20;;
32663;SDS011;19847;48.670;9.242;2022-07-29T00:21:07;10.73;;;9.60;;
32663;SDS011;19847;48.670;9.242;2022-07-29T00:24:29;12.40;;;9.65;;
32663;SDS011;19847;48.670;9.242;2022-07-29T00:27:51;10.68;;;9.60;;
32663;SDS011;19847;48.670;9.242;2022-07-29T00:31:14;12.05;;;8.90;;
32663;SDS011;19847;48.670;9.242;2022-07-29T00:34:37;11.65;;;7.60;;
32663;SDS011;19847;48.670;9.242;2022-07-29T00:37:59;9.77;;;8.30;;
32663;SDS011;19847;48.670;9.242;2022-07-29T00:41:22;9.55;;;7.78;;
32663;SDS011;19847;48.670;9.242;2022-07-29T00:44:44;8.68;;;7.88;;
32663;SDS011;19847;48.670;9.242;2022-07-29T00:48:07;11.63;;;9.18;;
32663;SDS011;19847;48.670;9.242;2022-07-29T00:51:29;9.73;;;7.97;;
32663;SDS011;19847;48.670;9.242;2022-07-29T00:54:52;10.10;;;8.52;;
32663;SDS011;19847;48.670;9.242;2022-07-29T00:58:14;9.07;;;8.13;;
32663;SDS011;19847;48.670;9.242;2022-07-29T01:01:36;12.35;;;9.40;;
32663;SDS011;19847;48.670;9.242;2022-07-29T01:04:59;11.73;;;8.88;;
32663;SDS011;19847;48.670;9.242;2022-07-29T01:08:22;9.75;;;7.70;;
32663;SDS011;19847;48.670;9.242;2022-07-29T01:11:44;11.88;;;9.02;;
32663;SDS011;19847;48.670;9.242;2022-07-29T01:15:08;11.63;;;8.88;;
32663;SDS011;19847;48.670;9.242;2022-07-29T01:18:30;10.75;;;7.43;;
32663;SDS011;19847;48.670;9.242;2022-07-29T01:21:57;9.50;;;7.93;;
32663;SDS011;19847;48.670;9.242;2022-07-29T01:25:30;8.00;;;7.20;;
32663;SDS011;19847;48.670;9.242;2022-07-29T01:29:07;8.00;;;7.20;;
32663;SDS011;19847;48.670;9.242;2022-07-29T01:32:36;7.55;;;6.85;;
32663;SDS011;19847;48.670;9.242;2022-07-29T01:36:00;8.73;;;7.60;;
32663;SDS011;19847;48.670;9.242;2022-07-29T01:39:26;9.80;;;7.50;;
32663;SDS011;19847;48.670;9.242;2022-07-29T01:42:55;8.98;;;7.88;;
32663;SDS011;19847;48.670;9.242;2022-07-29T01:46:21;8.63;;;7.73;;
32663;SDS011;19847;48.670;9.242;2022-07-29T01:49:49;8.48;;;7.68;;
32663;SDS011;19847;48.670;9.242;2022-07-29T01:53:15;7.40;;;6.72;;
32663;SDS011;19847;48.670;9.242;2022-07-29T01:56:58;8.10;;;7.22;;
32663;SDS011;19847;48.670;9.242;2022-07-29T02:00:21;8.55;;;7.53;;
32663;SDS011;19847;48.670;9.242;2022-07-29T02:03:50;8.48;;;6.65;;
32663;SDS011;19847;48.670;9.242;2022-07-29T02:07:24;8.88;;;6.30;;
32663;SDS011;19847;48.670;9.242;2022-07-29T02:10:49;7.97;;;6.85;;
32663;SDS011;19847;48.670;9.242;2022-07-29T02:14:12;6.97;;;6.30;;
32663;SDS011;19847;48.670;9.242;2022-07-29T02:17:39;7.13;;;5.90;;
32663;SDS011;19847;48.670;9.242;2022-07-29T02:21:05;8.77;;;6.80;;
32663;SDS011;19847;48.670;9.242;2022-07-29T02:24:35;9.80;;;6.38;;
32663;SDS011;19847;48.670;9.242;2022-07-29T02:27:59;7.18;;;6.50;;
32663;SDS011;19847;48.670;9.242;2022-07-29T02:31:22;13.13;;;7.22;;
32663;SDS011;19847;48.670;9.242;2022-07-29T02:34:46;8.47;;;7.40;;
32663;SDS011;19847;48.670;9.242;2022-07-29T02:38:12;8.50;;;6.82;;
32663;SDS011;19847;48.670;9.242;2022-07-29T02:41:39;14.57;;;7.20;;
32663;SDS011;19847;48.670;9.242;2022-07-29T02:45:03;13.93;;;8.45;;
32663;SDS011;19847;48.670;9.242;2022-07-29T02:48:27;10.50;;;7.05;;
32663;SDS011;19847;48.670;9.242;2022-07-29T02:51:58;9.45;;;6.35;;
32663;SDS011;19847;48.670;9.242;2022-07-29T02:55:25;6.95;;;6.22;;
32663;SDS011;19847;48.670;9.242;2022-07-29T02:58:53;6.22;;;5.28;;
32663;SDS011;19847;48.670;9.242;2022-07-29T03:02:18;8.45;;;5.97;;
32663;SDS011;19847;48.670;9.242;2022-07-29T03:05:42;8.75;;;6.95;;
32663;SDS011;19847;48.670;9.242;2022-07-29T03:09:04;9.60;;;6.13;;
32663;SDS011;19847;48.670;9.242;2022-07-29T03:12:36;8.63;;;6.47;;
32663;SDS011;19847;48.670;9.242;2022-07-29T03:15:59;11.18;;;7.68;;
32663;SDS011;19847;48.670;9.242;2022-07-29T03:19:24;8.38;;;7.47;;
32663;SDS011;19847;48.670;9.242;2022-07-29T03:22:47;15.30;;;7.25;;
32663;SDS011;19847;48.670;9.242;2022-07-29T03:26:10;9.90;;;8.40;;
32663;SDS011;19847;48.670;9.242;2022-07-29T03:29:33;7.78;;;7.07;;
32663;SDS011;19847;48.670;9.242;2022-07-29T03:32:55;8.63;;;7.75;;
32663;SDS011;19847;48.670;9.242;2022-07-29T03:36:19;12.20;;;9.23;;
32663;SDS011;19847;48.670;9.242;2022-07-29T03:39:40;8.90;;;7.97;;
32663;SDS011;19847;48.670;9.242;2022-07-29T03:43:04;8.90;;;7.95;;
32663;SDS011;19847;48.670;9.242;2022-07-29T03:46:29;9.02;;;8.13;;
32663;SDS011;19847;48.670;9.242;2022-07-29T03:49:54;9.48;;;7.90;;
32663;SDS011;19847;48.670;9.242;2022-07-29T03:53:21;10.90;;;8.05;;
32663;SDS011;19847;48.670;9.242;2022-07-29T03:56:45;11.07;;;8.07;;
32663;SDS011;19847;48.670;9.242;2022-07-29T04:03:32;9.10;;;7.47;;
32663;SDS011;19847;48.670;9.242;2022-07-29T04:06:55;12.50;;;7.47;;
32663;SDS011;19847;48.670;9.242;2022-07-29T04:10:17;8.38;;;7.43;;
32663;SDS011;19847;48.670;9.242;2022-07-29T04:13:52;11.38;;;7.72;;
32663;SDS011;19847;48.670;9.242;2022-07-29T04:17:13;11.57;;;7.90;;
32663;SDS011;19847;48.670;9.242;2022-07-29T04:20:36;11.05;;;8.02;;
32663;SDS011;19847;48.670;9.242;2022-07-29T04:23:58;12.77;;;8.45;;
32663;SDS011;19847;48.670;9.242;2022-07-29T04:27:20;12.18;;;8.38;;
32663;SDS011;19847;48.670;9.242;2022-07-29T04:30:42;12.13;;;9.32;;
32663;SDS011;19847;48.670;9.242;2022-07-29T04:34:04;12.82;;;9.50;;
32663;SDS011;19847;48.670;9.242;2022-07-29T04:37:27;9.52;;;8.00;;
32663;SDS011;19847;48.670;9.242;2022-07-29T04:40:49;8.77;;;7.32;;
32663;SDS011;19847;48.670;9.242;2022-07-29T04:44:11;9.57;;;7.95;;
32663;SDS011;19847;48.670;9.242;2022-07-29T04:47:34;14.57;;;8.10;;
32663;SDS011;19847;48.670;9.242;2022-07-29T04:50:56;15.50;;;6.97;;
32663;SDS011;19847;48.670;9.242;2022-07-29T04:54:20;8.20;;;5.93;;
32663;SDS011;19847;48.670;9.242;2022-07-29T04:57:42;6.97;;;5.97;;
32663;SDS011;19847;48.670;9.242;2022-07-29T05:01:03;13.23;;;6.57;;
32663;SDS011;19847;48.670;9.242;2022-07-29T05:04:25;7.38;;;4.70;;
32663;SDS011;19847;48.670;9.242;2022-07-29T05:07:47;8.75;;;5.53;;
32663;SDS011;19847;48.670;9.242;2022-07-29T05:11:10;7.45;;;4.95;;
32663;SDS011;19847;48.670;9.242;2022-07-29T05:14:37;7.47;;;6.88;;
32663;SDS011;19847;48.670;9.242;2022-07-29T05:17:59;6.65;;;5.65;;
32663;SDS011;19847;48.670;9.242;2022-07-29T05:21:21;5.35;;;4.85;;
32663;SDS011;19847;48.670;9.242;2022-07-29T05:24:43;4.18;;;3.78;;
32663;SDS011;19847;48.670;9.242;2022-07-29T05:28:06;3.50;;;3.03;;
32663;SDS011;19847;48.670;9.242;2022-07-29T05:31:28;4.07;;;3.10;;
32663;SDS011;19847;48.670;9.242;2022-07-29T05:34:50;3.92;;;2.67;;
32663;SDS011;19847;48.670;9.242;2022-07-29T05:38:12;3.40;;;2.78;;
32663;SDS011;19847;48.670;9.242;2022-07-29T05:41:34;3.65;;;2.75;;
32663;SDS011;19847;48.670;9.242;2022-07-29T05:44:57;4.00;;;2.63;;
32663;SDS011;19847;48.670;9.242;2022-07-29T05:48:19;2.90;;;2.60;;
32663;SDS011;19847;48.670;9.242;2022-07-29T05:51:41;2.97;;;2.50;;
32663;SDS011;19847;48.670;9.242;2022-07-29T05:55:03;4.50;;;2.85;;
32663;SDS011;19847;48.670;9.242;2022-07-29T05:58:25;4.80;;;2.45;;
32663;SDS011;19847;48.670;9.242;2022-07-29T06:01:48;4.03;;;2.28;;
32663;SDS011;19847;48.670;9.242;2022-07-29T06:05:10;2.63;;;2.42;;
32663;SDS011;19847;48.670;9.242;2022-07-29T06:08:37;6.80;;;2.63;;
32663;SDS011;19847;48.670;9.242;2022-07-29T06:11:59;5.68;;;2.70;;
32663;SDS011;19847;48.670;9.242;2022-07-29T06:15:21;2.65;;;2.28;;
32663;SDS011;19847;48.670;9.242;2022-07-29T06:18:44;2.75;;;2.55;;
32663;SDS011;19847;48.670;9.242;2022-07-29T06:22:06;7.18;;;2.35;;
32663;SDS011;19847;48.670;9.242;2022-07-29T06:25:28;7.80;;;1.75;;
32663;SDS011;19847;48.670;9.242;2022-07-29T06:28:50;1.95;;;1.50;;
32663;SDS011;19847;48.670;9.242;2022-07-29T06:32:12;9.13;;;1.95;;
32663;SDS011;19847;48.670;9.242;2022-07-29T06:35:35;4.32;;;1.60;;
32663;SDS011;19847;48.670;9.242;2022-07-29T06:39:03;5.88;;;1.58;;
32663;SDS011;19847;48.670;9.242;2022-07-29T06:42:26;2.55;;;1.25;;
32663;SDS011;19847;48.670;9.242;2022-07-29T06:45:48;3.38;;;1.33;;
32663;SDS011;19847;48.670;9.242;2022-07-29T06:49:10;2.13;;;1.40;;
32663;SDS011;19847;48.670;9.242;2022-07-29T06:52:33;2.90;;;1.40;;
32663;SDS011;19847;48.670;9.242;2022-07-29T06:55:55;2.50;;;1.80;;
32663;SDS011;19847;48.670;9.242;2022-07-29T06:59:17;1.85;;;1.40;;
32663;SDS011;19847;48.670;9.242;2022-07-29T07:02:43;3.10;;;1.17;;
32663;SDS011;19847;48.670;9.242;2022-07-29T07:06:07;2.28;;;1.40;;
32663;SDS011;19847;48.670;9.242;2022-07-29T07:09:36;2.70;;;1.77;;
32663;SDS011;19847;48.670;9.242;2022-07-29T07:13:01;2.13;;;1.50;;
32663;SDS011;19847;48.670;9.242;2022-07-29T07:16:23;3.20;;;1.50;;
32663;SDS011;19847;48.670;9.242;2022-07-29T07:19:45;3.63;;;1.67;;
32663;SDS011;19847;48.670;9.242;2022-07-29T07:23:07;4.40;;;1.75;;
32663;SDS011;19847;48.670;9.242;2022-07-29T07:26:30;2.25;;;1.58;;
32663;SDS011;19847;48.670;9.242;2022-07-29T07:29:52;6.35;;;1.73;;
32663;SDS011;19847;48.670;9.242;2022-07-29T07:33:14;1.58;;;1.42;;
32663;SDS011;19847;48.670;9.242;2022-07-29T07:36:35;6.15;;;1.90;;
32663;SDS011;19847;48.670;9.242;2022-07-29T07:39:57;3.92;;;1.80;;
32663;SDS011;19847;48.670;9.242;2022-07-29T07:43:21;2.05;;;1.60;;
32663;SDS011;19847;48.670;9.242;2022-07-29T07:46:43;3.13;;;1.50;;
32663;SDS011;19847;48.670;9.242;2022-07-29T07:50:07;6.82;;;1.75;;
32663;SDS011;19847;48.670;9.242;2022-07-29T07:53:38;1.83;;;1.42;;
32663;SDS011;19847;48.670;9.242;2022-07-29T07:57:00;4.13;;;1.50;;
32663;SDS011;19847;48.670;9.242;2022-07-29T08:00:23;2.17;;;1.70;;
32663;SDS011;19847;48.670;9.242;2022-07-29T08:03:45;3.28;;;1.55;;
32663;SDS011;19847;48.670;9.242;2022-07-29T08:07:07;2.80;;;1.30;;
32663;SDS011;19847;48.670;9.242;2022-07-29T08:10:29;2.90;;;1.80;;
32663;SDS011;19847;48.670;9.242;2022-07-29T08:13:51;5.95;;;2.13;;
32663;SDS011;19847;48.670;9.242;2022-07-29T08:17:14;2.00;;;1.70;;
32663;SDS011;19847;48.670;9.242;2022-07-29T08:20:36;2.03;;;1.83;;
32663;SDS011;19847;48.670;9.242;2022-07-29T08:23:58;5.13;;;1.80;;
32663;SDS011;19847;48.670;9.242;2022-07-29T08:27:27;5.80;;;1.80;;
32663;SDS011;19847;48.670;9.242;2022-07-29T08:31:04;8.45;;;2.45;;
32663;SDS011;19847;48.670;9.242;2022-07-29T08:34:28;5.32;;;2.22;;
32663;SDS011;19847;48.670;9.242;2022-07-29T08:37:50;2.45;;;2.13;;
32663;SDS011;19847;48.670;9.242;2022-07-29T08:41:12;2.20;;;1.92;;
32663;SDS011;19847;48.670;9.242;2022-07-29T08:44:34;4.75;;;1.88;;
32663;SDS011;19847;48.670;9.242;2022-07-29T08:47:57;7.20;;;2.22;;
32663;SDS011;19847;48.670;9.242;2022-07-29T08:51:22;4.10;;;2.50;;
32663;SDS011;19847;48.670;9.242;2022-07-29T08:54:46;5.47;;;2.25;;
32663;SDS011;19847;48.670;9.242;2022-07-29T08:58:09;2.75;;;2.25;;
32663;SDS011;19847;48.670;9.242;2022-07-29T09:01:37;3.58;;;2.17;;
32663;SDS011;19847;48.670;9.242;2022-07-29T09:05:05;6.85;;;2.72;;
32663;SDS011;19847;48.670;9.242;2022-07-29T09:08:31;2.85;;;2.17;;
32663;SDS011;19847;48.670;9.242;2022-07-29T09:11:54;3.25;;;2.10;;
32663;SDS011;19847;48.670;9.242;2022-07-29T09:15:17;11.15;;;2.50;;
32663;SDS011;19847;48.670;9.242;2022-07-29T09:22:03;3.50;;;2.38;;
32663;SDS011;19847;48.670;9.242;2022-07-29T09:25:34;12.82;;;2.83;;
32663;SDS011;19847;48.670;9.242;2022-07-29T09:28:57;8.63;;;2.45;;
32663;SDS011;19847;48.670;9.242;2022-07-29T09:32:19;4.00;;;2.65;;
32663;SDS011;19847;48.670;9.242;2022-07-29T09:35:41;5.85;;;1.90;;
32663;SDS011;19847;48.670;9.242;2022-07-29T09:39:26;6.10;;;2.70;;
32663;SDS011;19847;48.670;9.242;2022-07-29T09:42:50;3.20;;;2.65;;
32663;SDS011;19847;48.670;9.242;2022-07-29T09:46:13;10.05;;;2.85;;
32663;SDS011;19847;48.670;9.242;2022-07-29T09:49:36;5.95;;;3.13;;
32663;SDS011;19847;48.670;9.242;2022-07-29T09:53:19;8.27;;;3.22;;
32663;SDS011;19847;48.670;9.242;2022-07-29T09:56:51;3.85;;;2.63;;
32663;SDS011;19847;48.670;9.242;2022-07-29T10:00:16;4.90;;;2.70;;
32663;SDS011;19847;48.670;9.242;2022-07-29T10:03:49;7.57;;;2.92;;
32663;SDS011;19847;48.670;9.242;2022-07-29T10:07:12;4.95;;;2.65;;
32663;SDS011;19847;48.670;9.242;2022-07-29T10:10:35;4.03;;;2.20;;
32663;SDS011;19847;48.670;9.242;2022-07-29T10:13:58;9.23;;;3.22;;
32663;SDS011;19847;48.670;9.242;2022-07-29T10:17:24;3.15;;;2.38;;
32663;SDS011;19847;48.670;9.242;2022-07-29T10:20:47;4.90;;;2.78;;
32663;SDS011;19847;48.670;9.242;2022-07-29T10:24:10;7.70;;;2.45;;
32663;SDS011;19847;48.670;9.242;2022-07-29T10:27:35;3.10;;;2.28;;
32663;SDS011;19847;48.670;9.242;2022-07-29T10:30:59;5.97;;;2.78;;
32663;SDS011;19847;48.670;9.242;2022-07-29T10:34:29;9.10;;;2.95;;
32663;SDS011;19847;48.670;9.242;2022-07-29T10:38:04;8.13;;;3.85;;
32663;SDS011;19847;48.670;9.242;2022-07-29T10:41:47;8.57;;;3.10;;
32663;SDS011;19847;48.670;9.242;2022-07-29T10:45:24;5.60;;;3.47;;
32663;SDS011;19847;48.670;9.242;2022-07-29T10:49:07;8.55;;;3.05;;
32663;SDS011;19847;48.670;9.242;2022-07-29T10:52:53;17.83;;;3.40;;
32663;SDS011;19847;48.670;9.242;2022-07-29T10:56:24;5.25;;;3.13;;
32663;SDS011;19847;48.670;9.242;2022-07-29T10:59:47;3.92;;;3.20;;
32663;SDS011;19847;48.670;9.242;2022-07-29T11:07:11;6.80;;;2.92;;
32663;SDS011;19847;48.670;9.242;2022-07-29T11:10:36;7.93;;;3.60;;
32663;SDS011;19847;48.670;9.242;2022-07-29T11:13:59;9.15;;;3.95;;
32663;SDS011;19847;48.670;9.242;2022-07-29T11:17:21;5.65;;;3.38;;
32663;SDS011;19847;48.670;9.242;2022-07-29T11:20:43;7.72;;;2.60;;
32663;SDS011;19847;48.670;9.242;2022-07-29T11:24:12;12.32;;;3.38;;
32663;SDS011;19847;48.670;9.242;2022-07-29T11:27:40;5.72;;;3.40;;
32663;SDS011;19847;48.670;9.242;2022-07-29T11:31:07;7.43;;;3.88;;
32663;SDS011;19847;48.670;9.242;2022-07-29T11:34:31;23.67;;;4.05;;
32663;SDS011;19847;48.670;9.242;2022-07-29T11:38:23;11.50;;;2.00;;
32663;SDS011;19847;48.670;9.242;2022-07-29T11:41:48;5.68;;;2.13;;
32663;SDS011;19847;48.670;9.242;2022-07-29T11:45:15;8.82;;;1.90;;
32663;SDS011;19847;48.670;9.242;2022-07-29T11:48:59;1.67;;;1.33;;
32663;SDS011;19847;48.670;9.242;2022-07-29T11:52:21;3.67;;;1.55;;
32663;SDS011;19847;48.670;9.242;2022-07-29T11:55:44;4.53;;;2.10;;
32663;SDS011;19847;48.670;9.242;2022-07-29T11:59:25;4.28;;;2.30;;
32663;SDS011;19847;48.670;9.242;2022-07-29T12:02:57;5.07;;;1.65;;
32663;SDS011;19847;48.670;9.242;2022-07-29T12:06:20;2.60;;;1.45;;
32663;SDS011;19847;48.670;9.242;2022-07-29T12:09:48;7.05;;;1.70;;
32663;SDS011;19847;48.670;9.242;2022-07-29T12:13:11;2.75;;;2.03;;
32663;SDS011;19847;48.670;9.242;2022-07-29T12:16:34;2.55;;;2.05;;
32663;SDS011;19847;48.670;9.242;2022-07-29T12:19:58;3.10;;;1.95;;
32663;SDS011;19847;48.670;9.242;2022-07-29T12:23:22;4.78;;;2.33;;
32663;SDS011;19847;48.670;9.242;2022-07-29T12:26:49;3.22;;;2.05;;
32663;SDS011;19847;48.670;9.242;2022-07-29T12:30:13;4.53;;;2.33;;
32663;SDS011;19847;48.670;9.242;2022-07-29T12:33:37;5.20;;;3.00;;
32663;SDS011;19847;48.670;9.242;2022-07-29T12:37:01;2.63;;;2.40;;
32663;SDS011;19847;48.670;9.242;2022-07-29T12:40:23;6.70;;;3.05;;
32663;SDS011;19847;48.670;9.242;2022-07-29T12:43:53;4.13;;;3.42;;
32663;SDS011;19847;48.670;9.242;2022-07-29T12:47:16;9.80;;;3.72;;
32663;SDS011;19847;48.670;9.242;2022-07-29T12:50:52;7.43;;;4.07;;
32663;SDS011;19847;48.670;9.242;2022-07-29T12:54:16;9.05;;;4.43;;
32663;SDS011;19847;48.670;9.242;2022-07-29T12:57:45;7.45;;;4.18;;
32663;SDS011;19847;48.670;9.242;2022-07-29T13:01:08;12.20;;;4.78;;
32663;SDS011;19847;48.670;9.242;2022-07-29T13:04:37;8.48;;;4.60;;
32663;SDS011;19847;48.670;9.242;2022-07-29T13:08:09;6.35;;;5.05;;
32663;SDS011;19847;48.670;9.242;2022-07-29T13:11:44;9.45;;;5.22;;
32663;SDS011;19847;48.670;9.242;2022-07-29T13:15:19;10.00;;;5.18;;
32663;SDS011;19847;48.670;9.242;2022-07-29T13:18:40;7.35;;;5.13;;
32663;SDS011;19847;48.670;9.242;2022-07-29T13:22:02;10.98;;;5.80;;
32663;SDS011;19847;48.670;9.242;2022-07-29T13:25:25;4.85;;;4.30;;
32663;SDS011;19847;48.670;9.242;2022-07-29T13:28:49;11.48;;;4.95;;
32663;SDS011;19847;48.670;9.242;2022-07-29T13:32:11;6.15;;;4.68;;
32663;SDS011;19847;48.670;9.242;2022-07-29T13:35:33;11.15;;;6.28;;
32663;SDS011;19847;48.670;9.242;2022-07-29T13:39:00;9.23;;;5.78;;
32663;SDS011;19847;48.670;9.242;2022-07-29T13:42:22;14.30;;;6.13;;
32663;SDS011;19847;48.670;9.242;2022-07-29T13:45:45;6.68;;;5.47;;
32663;SDS011;19847;48.670;9.242;2022-07-29T13:49:07;15.05;;;6.50;;
32663;SDS011;19847;48.670;9.242;2022-07-29T13:52:29;7.68;;;5.63;;
32663;SDS011;19847;48.670;9.242;2022-07-29T13:55:51;10.00;;;5.93;;
32663;SDS011;19847;48.670;9.242;2022-07-29T13:59:13;9.73;;;6.05;;
32663;SDS011;19847;48.670;9.242;2022-07-29T14:02:36;10.98;;;5.57;;
32663;SDS011;19847;48.670;9.242;2022-07-29T14:05:58;10.00;;;5.05;;
32663;SDS011;19847;48.670;9.242;2022-07-29T14:09:21;14.70;;;4.65;;
32663;SDS011;19847;48.670;9.242;2022-07-29T14:12:43;9.93;;;4.97;;
32663;SDS011;19847;48.670;9.242;2022-07-29T14:16:05;5.30;;;4.60;;
32663;SDS011;19847;48.670;9.242;2022-07-29T14:19:28;7.85;;;4.93;;
32663;SDS011;19847;48.670;9.242;2022-07-29T14:22:50;5.82;;;5.25;;
32663;SDS011;19847;48.670;9.242;2022-07-29T14:26:13;5.80;;;4.47;;
32663;SDS011;19847;48.670;9.242;2022-07-29T14:29:42;9.73;;;5.10;;
32663;SDS011;19847;48.670;9.242;2022-07-29T14:33:03;8.18;;;4.85;;
32663;SDS011;19847;48.670;9.242;2022-07-29T14:36:27;7.57;;;4.25;;
32663;SDS011;19847;48.670;9.242;2022-07-29T14:39:48;4.95;;;3.60;;
32663;SDS011;19847;48.670;9.242;2022-07-29T14:43:10;9.93;;;4.55;;
32663;SDS011;19847;48.670;9.242;2022-07-29T14:46:32;10.55;;;3.83;;
32663;SDS011;19847;48.670;9.242;2022-07-29T14:49:54;4.80;;;3.35;;
32663;SDS011;19847;48.670;9.242;2022-07-29T14:53:17;8.57;;;3.92;;
32663;SDS011;19847;48.670;9.242;2022-07-29T14:56:39;10.57;;;4.10;;
32663;SDS011;19847;48.670;9.242;2022-07-29T15:00:07;8.75;;;4.53;;
32663;SDS011;19847;48.670;9.242;2022-07-29T15:03:30;5.38;;;3.80;;
32663;SDS011;19847;48.670;9.242;2022-07-29T15:06:54;6.93;;;4.22;;
32663;SDS011;19847;48.670;9.242;2022-07-29T15:10:17;11.10;;;4.15;;
32663;SDS011;19847;48.670;9.242;2022-07-29T15:13:41;6.18;;;4.72;;
32663;SDS011;19847;48.670;9.242;2022-07-29T15:17:02;6.20;;;4.20;;
32663;SDS011;19847;48.670;9.242;2022-07-29T15:20:25;9.48;;;4.05;;
32663;SDS011;19847;48.670;9.242;2022-07-29T15:23:47;4.97;;;3.58;;
32663;SDS011;19847;48.670;9.242;2022-07-29T15:27:10;9.68;;;4.25;;
32663;SDS011;19847;48.670;9.242;2022-07-29T15:30:32;7.60;;;4.43;;
32663;SDS011;19847;48.670;9.242;2022-07-29T15:33:55;8.50;;;3.83;;
32663;SDS011;19847;48.670;9.242;2022-07-29T15:37:22;8.48;;;3.65;;
32663;SDS011;19847;48.670;9.242;2022-07-29T15:40:44;11.98;;;4.05;;
32663;SDS011;19847;48.670;9.242;2022-07-29T15:44:07;6.03;;;3.25;;
32663;SDS011;19847;48.670;9.242;2022-07-29T15:47:29;6.15;;;3.42;;
32663;SDS011;19847;48.670;9.242;2022-07-29T15:50:51;5.10;;;3.10;;
32663;SDS011;19847;48.670;9.242;2022-07-29T15:54:13;4.20;;;2.67;;
32663;SDS011;19847;48.670;9.242;2022-07-29T15:57:35;12.40;;;3.10;;
32663;SDS011;19847;48.670;9.242;2022-07-29T16:00:58;13.13;;;3.53;;
32663;SDS011;19847;48.670;9.242;2022-07-29T16:04:20;6.25;;;2.78;;
32663;SDS011;19847;48.670;9.242;2022-07-29T16:07:42;5.03;;;2.63;;
32663;SDS011;19847;48.670;9.242;2022-07-29T16:11:04;8.00;;;2.78;;
32663;SDS011;19847;48.670;9.242;2022-07-29T16:14:26;5.85;;;3.10;;
32663;SDS011;19847;48.670;9.242;2022-07-29T16:17:50;4.88;;;2.75;;
32663;SDS011;19847;48.670;9.242;2022-07-29T16:21:12;3.55;;;2.88;;
32663;SDS011;19847;48.670;9.242;2022-07-29T16:24:33;6.40;;;3.50;;
32663;SDS011;19847;48.670;9.242;2022-07-29T16:27:56;5.68;;;3.05;;
32663;SDS011;19847;48.670;9.242;2022-07-29T16:34:44;7.15;;;3.20;;
32663;SDS011;19847;48.670;9.242;2022-07-29T16:38:06;8.93;;;3.65;;
32663;SDS011;19847;48.670;9.242;2022-07-29T16:41:28;4.40;;;3.00;;
32663;SDS011;19847;48.670;9.242;2022-07-29T16:44:50;10.75;;;3.25;;
32663;SDS011;19847;48.670;9.242;2022-07-29T16:48:11;9.50;;;3.17;;
32663;SDS011;19847;48.670;9.242;2022-07-29T16:51:35;5.93;;;2.90;;
32663;SDS011;19847;48.670;9.242;2022-07-29T16:54:57;3.70;;;2.88;;
32663;SDS011;19847;48.670;9.242;2022-07-29T16:58:19;6.35;;;3.85;;
32663;SDS011;19847;48.670;9.242;2022-07-29T17:01:41;9.02;;;4.47;;
32663;SDS011;19847;48.670;9.242;2022-07-29T17:05:03;9.30;;;4.68;;
32663;SDS011;19847;48.670;9.242;2022-07-29T17:08:27;9.23;;;4.47;;
32663;SDS011;19847;48.670;9.242;2022-07-29T17:11:49;9.95;;;3.88;;
32663;SDS011;19847;48.670;9.242;2022-07-29T17:15:15;4.75;;;4.25;;
32663;SDS011;19847;48.670;9.242;2022-07-29T17:18:37;5.50;;;4.55;;
32663;SDS011;19847;48.670;9.242;2022-07-29T17:21:59;5.13;;;4.05;;
32663;SDS011;19847;48.670;9.242;2022-07-29T17:25:33;6.13;;;3.85;;
32663;SDS011;19847;48.670;9.242;2022-07-29T17:28:55;4.00;;;3.60;;
32663;SDS011;19847;48.670;9.242;2022-07-29T17:32:17;6.55;;;3.72;;
32663;SDS011;19847;48.670;9.242;2022-07-29T17:35:38;4.30;;;3.90;;
32663;SDS011;19847;48.670;9.242;2022-07-29T17:39:01;7.13;;;3.90;;
32663;SDS011;19847;48.670;9.242;2022-07-29T17:42:27;4.28;;;3.88;;
32663;SDS011;19847;48.670;9.242;2022-07-29T17:45:49;11.80;;;3.85;;
32663;SDS011;19847;48.670;9.242;2022-07-29T17:49:11;6.95;;;3.58;;
32663;SDS011;19847;48.670;9.242;2022-07-29T17:52:33;7.40;;;4.20;;
32663;SDS011;19847;48.670;9.242;2022-07-29T17:55:55;4.32;;;3.72;;
32663;SDS011;19847;48.670;9.242;2022-07-29T17:59:19;12.32;;;4.32;;
32663;SDS011;19847;48.670;9.242;2022-07-29T18:02:41;7.60;;;4.10;;
32663;SDS011;19847;48.670;9.242;2022-07-29T18:06:03;5.90;;;4.32;;
32663;SDS011;19847;48.670;9.242;2022-07-29T18:09:25;13.13;;;4.40;;
32663;SDS011;19847;48.670;9.242;2022-07-29T18:12:47;4.97;;;3.50;;
32663;SDS011;19847;48.670;9.242;2022-07-29T18:16:10;4.78;;;3.72;;
32663;SDS011;19847;48.670;9.242;2022-07-29T18:19:32;10.35;;;4.20;;
32663;SDS011;19847;48.670;9.242;2022-07-29T18:22:54;8.65;;;3.45;;
32663;SDS011;19847;48.670;9.242;2022-07-29T18:26:16;5.32;;;3.88;;
32663;SDS011;19847;48.670;9.242;2022-07-29T18:29:38;6.40;;;4.60;;
32663;SDS011;19847;48.670;9.242;2022-07-29T18:33:01;6.50;;;5.20;;
32663;SDS011;19847;48.670;9.242;2022-07-29T18:36:41;7.82;;;4.07;;
32663;SDS011;19847;48.670;9.242;2022-07-29T18:40:03;7.20;;;4.25;;
32663;SDS011;19847;48.670;9.242;2022-07-29T18:43:25;5.35;;;4.65;;
32663;SDS011;19847;48.670;9.242;2022-07-29T18:46:47;7.25;;;4.50;;
32663;SDS011;19847;48.670;9.242;2022-07-29T18:50:10;6.72;;;5.32;;
32663;SDS011;19847;48.670;9.242;2022-07-29T18:53:32;8.65;;;4.65;;
32663;SDS011;19847;48.670;9.242;2022-07-29T18:56:57;7.35;;;4.70;;
32663;SDS011;19847;48.670;9.242;2022-07-29T19:00:20;12.77;;;5.35;;
32663;SDS011;19847;48.670;9.242;2022-07-29T19:03:42;7.60;;;4.68;;
32663;SDS011;19847;48.670;9.242;2022-07-29T19:07:06;6.32;;;3.58;;
32663;SDS011;19847;48.670;9.242;2022-07-29T19:10:27;5.22;;;3.08;;
32663;SDS011;19847;48.670;9.242;2022-07-29T19:13:49;3.45;;;2.97;;
32663;SDS011;19847;48.670;9.242;2022-07-29T19:17:11;4.00;;;3.28;;
32663;SDS011;19847;48.670;9.242;2022-07-29T19:20:33;4.93;;;3.17;;
32663;SDS011;19847;48.670;9.242;2022-07-29T19:23:56;12.48;;;3.75;;
32663;SDS011;19847;48.670;9.242;2022-07-29T19:27:26;9.75;;;3.13;;
32663;SDS011;19847;48.670;9.242;2022-07-29T19:30:48;7.63;;;3.15;;
32663;SDS011;19847;48.670;9.242;2022-07-29T19:34:10;4.60;;;2.88;;
32663;SDS011;19847;48.670;9.242;2022-07-29T19:37:32;5.38;;;2.75;;
32663;SDS011;19847;48.670;9.242;2022-07-29T19:40:56;7.40;;;2.75;;
32663;SDS011;19847;48.670;9.242;2022-07-29T19:44:22;3.78;;;2.42;;
32663;SDS011;19847;48.670;9.242;2022-07-29T19:47:47;3.22;;;2.60;;
32663;SDS011;19847;48.670;9.242;2022-07-29T19:51:09;6.72;;;2.55;;
32663;SDS011;19847;48.670;9.242;2022-07-29T19:54:31;3.88;;;2.47;;
32663;SDS011;19847;48.670;9.242;2022-07-29T19:57:54;4.75;;;1.83;;
32663;SDS011;19847;48.670;9.242;2022-07-29T20:01:17;5.60;;;3.05;;
32663;SDS011;19847;48.670;9.242;2022-07-29T20:04:39;8.80;;;4.68;;
32663;SDS011;19847;48.670;9.242;2022-07-29T20:08:01;8.68;;;3.25;;
32663;SDS011;19847;48.670;9.242;2022-07-29T20:11:23;12.68;;;3.47;;
32663;SDS011;19847;48.670;9.242;2022-07-29T20:14:46;3.70;;;2.65;;
32663;SDS011;19847;48.670;9.242;2022-07-29T20:18:08;3.65;;;2.65;;
32663;SDS011;19847;48.670;9.242;2022-07-29T20:21:30;4.28;;;2.38;;
32663;SDS011;19847;48.670;9.242;2022-07-29T20:24:52;4.88;;;2.17;;
32663;SDS011;19847;48.670;9.242;2022-07-29T20:28:14;4.00;;;2.38;;
32663;SDS011;19847;48.670;9.242;2022-07-29T20:31:37;3.45;;;2.35;;
32663;SDS011;19847;48.670;9.242;2022-07-29T20:34:59;3.45;;;2.55;;
32663;SDS011;19847;48.670;9.242;2022-07-29T20:38:20;4.18;;;2.50;;
32663;SDS011;19847;48.670;9.242;2022-07-29T20:41:42;5.05;;;2.75;;